Los Cabos International Airport
MMSD : now visible

Airfield :











YOU CAN JOIN US ON...

 
LOGIN :

Register | Disclaimer

   EN    FR    IT 

 









Legend :    VFR   Marginal VFR   IFR   Intensive IFR   Very Intensive IFR
Visi :
Ceiling :
>= 8 km
>= 3000ft
5 to 8 km
1000 to 3000 ft
1500m to 5 km
500 to 1000 ft
800 to 1500m
200 to 500 ft
< 800m
< 200 ft
Symbols :   Thunderstorms  Fog  Heavy snow  Heavy precipitations  Wind > 20 kt






- Airport Elevation : 374 ft
- IATA code : SJD


MMSD - Los Cabos International

CURRENT METAR :
  • 110247Z 00000KT 10SM SCT160 BKN250 28/19 A2990 RMK SLP108 51009 913 8/038 SC

EXPIRED METARs :
  • 110148Z 08005KT 10SM FEW040 SCT160 BKN250 28/20 A2989 RMK 8/538
  • 110057Z RTD 11010KT 10SM SCT040 BKN160 BKN250 29/20 A2988 RMK 8/538

TAF TAF MMSD
Valid from the 10 at 18:00 until the 11 at 18:00 UTC


101704Z 1018/1118 14010KT P6SM SCT030 BKN120
BECMG 1020/1021 14015KT BKN030CB BKN100
TEMPO 1021/1101 5SM TSRA
FM110200 16008KT P6SM SCT030 BKN100
PROB40 1102/1106 6SM -RA
FM110800 14005KT P6SM BKN030 BKN100
BECMG 1115/1116 18008KT SCT030 BKN100
MMFR FIR / North America



MET'MAP, your aeronautical weather chart ! - Copyright ORBIFLY December 2007 - Disclaimer

ORBIFLY MET'MAP TEAM :

Programming & Development : Alexandra Zaïnal
Concept & original design : Baudouin d'Aumeries
Assistance for programming : Marc-Olivier Méhu
Technical & hardware support : Manuel Goepfert

Contact : metmap@orbifly.com




SOURCES & CREDITS :

   NOAA       Earth
Advisory